sensor_id;sensor_type;location;lat;lon;timestamp;temperature;humidity
52203;DHT22;38173;52.850;6.970;2023-06-14T00:01:01;15.50;77.60
52203;DHT22;38173;52.850;6.970;2023-06-14T00:03:29;15.40;77.50
52203;DHT22;38173;52.850;6.970;2023-06-14T00:05:55;15.40;80.10
52203;DHT22;38173;52.850;6.970;2023-06-14T00:08:21;15.40;80.20
52203;DHT22;38173;52.850;6.970;2023-06-14T00:10:48;15.30;80.30
52203;DHT22;38173;52.850;6.970;2023-06-14T00:13:14;15.30;80.80
52203;DHT22;38173;52.850;6.970;2023-06-14T00:15:40;15.20;81.10
52203;DHT22;38173;52.850;6.970;2023-06-14T00:18:06;15.20;82.90
52203;DHT22;38173;52.850;6.970;2023-06-14T00:20:33;15.20;87.20
52203;DHT22;38173;52.850;6.970;2023-06-14T00:23:02;15.20;86.60
52203;DHT22;38173;52.850;6.970;2023-06-14T00:25:27;15.20;88.20
52203;DHT22;38173;52.850;6.970;2023-06-14T00:27:55;15.20;89.30
52203;DHT22;38173;52.850;6.970;2023-06-14T00:30:22;15.10;90.70
52203;DHT22;38173;52.850;6.970;2023-06-14T00:32:49;15.10;91.00
52203;DHT22;38173;52.850;6.970;2023-06-14T00:35:15;15.10;92.70
52203;DHT22;38173;52.850;6.970;2023-06-14T00:37:43;15.10;90.80
52203;DHT22;38173;52.850;6.970;2023-06-14T00:40:09;15.10;93.90
52203;DHT22;38173;52.850;6.970;2023-06-14T00:42:37;15.00;92.80
52203;DHT22;38173;52.850;6.970;2023-06-14T00:45:03;15.00;94.40
52203;DHT22;38173;52.850;6.970;2023-06-14T00:47:30;15.00;94.30
52203;DHT22;38173;52.850;6.970;2023-06-14T00:49:59;15.00;96.20
52203;DHT22;38173;52.850;6.970;2023-06-14T00:52:30;15.00;95.30
52203;DHT22;38173;52.850;6.970;2023-06-14T00:55:02;14.90;97.60
52203;DHT22;38173;52.850;6.970;2023-06-14T00:57:29;14.90;94.40
52203;DHT22;38173;52.850;6.970;2023-06-14T00:59:56;14.80;97.40
52203;DHT22;38173;52.850;6.970;2023-06-14T01:02:23;14.80;94.50
52203;DHT22;38173;52.850;6.970;2023-06-14T01:04:52;14.80;98.50
52203;DHT22;38173;52.850;6.970;2023-06-14T01:07:43;14.80;99.90
52203;DHT22;38173;52.850;6.970;2023-06-14T01:13:19;14.70;99.90
52203;DHT22;38173;52.850;6.970;2023-06-14T01:15:48;14.70;99.90
52203;DHT22;38173;52.850;6.970;2023-06-14T01:18:15;14.70;99.90
52203;DHT22;38173;52.850;6.970;2023-06-14T01:20:45;14.70;99.90
52203;DHT22;38173;52.850;6.970;2023-06-14T01:23:21;14.70;99.90
52203;DHT22;38173;52.850;6.970;2023-06-14T01:25:48;14.70;99.90
52203;DHT22;38173;52.850;6.970;2023-06-14T01:28:21;14.80;99.90
52203;DHT22;38173;52.850;6.970;2023-06-14T01:30:53;14.80;99.90
52203;DHT22;38173;52.850;6.970;2023-06-14T01:33:21;14.80;99.90
52203;DHT22;38173;52.850;6.970;2023-06-14T01:35:49;14.80;99.90
52203;DHT22;38173;52.850;6.970;2023-06-14T01:38:17;14.80;99.90
52203;DHT22;38173;52.850;6.970;2023-06-14T01:40:45;14.80;99.90
52203;DHT22;38173;52.850;6.970;2023-06-14T01:43:15;14.80;99.90
52203;DHT22;38173;52.850;6.970;2023-06-14T01:45:42;14.80;99.90
52203;DHT22;38173;52.850;6.970;2023-06-14T01:48:09;14.80;99.90
52203;DHT22;38173;52.850;6.970;2023-06-14T01:50:38;14.80;99.90
52203;DHT22;38173;52.850;6.970;2023-06-14T01:53:10;14.80;99.90
52203;DHT22;38173;52.850;6.970;2023-06-14T01:55:36;14.80;99.90
52203;DHT22;38173;52.850;6.970;2023-06-14T01:58:09;14.80;99.90
52203;DHT22;38173;52.850;6.970;2023-06-14T02:00:35;14.70;99.90
52203;DHT22;38173;52.850;6.970;2023-06-14T02:03:02;14.70;99.90
52203;DHT22;38173;52.850;6.970;2023-06-14T02:05:30;14.70;99.90
52203;DHT22;38173;52.850;6.970;2023-06-14T02:07:56;14.60;99.90
52203;DHT22;38173;52.850;6.970;2023-06-14T02:10:21;14.60;99.90
52203;DHT22;38173;52.850;6.970;2023-06-14T02:12:47;14.60;99.90
52203;DHT22;38173;52.850;6.970;2023-06-14T02:15:13;14.50;99.90
52203;DHT22;38173;52.850;6.970;2023-06-14T02:17:43;14.50;99.90
52203;DHT22;38173;52.850;6.970;2023-06-14T02:20:10;14.40;99.90
52203;DHT22;38173;52.850;6.970;2023-06-14T02:22:36;14.40;99.90
52203;DHT22;38173;52.850;6.970;2023-06-14T02:25:05;14.40;99.90
52203;DHT22;38173;52.850;6.970;2023-06-14T02:27:32;14.30;99.90
52203;DHT22;38173;52.850;6.970;2023-06-14T02:29:57;14.30;99.90
52203;DHT22;38173;52.850;6.970;2023-06-14T02:32:23;14.30;99.90
52203;DHT22;38173;52.850;6.970;2023-06-14T02:34:49;14.20;99.90
52203;DHT22;38173;52.850;6.970;2023-06-14T02:37:16;14.20;99.90
52203;DHT22;38173;52.850;6.970;2023-06-14T02:39:42;14.20;99.90
52203;DHT22;38173;52.850;6.970;2023-06-14T02:42:09;14.10;99.90
52203;DHT22;38173;52.850;6.970;2023-06-14T02:44:35;14.10;99.90
52203;DHT22;38173;52.850;6.970;2023-06-14T02:47:03;14.10;99.90
52203;DHT22;38173;52.850;6.970;2023-06-14T02:49:29;14.00;99.90
52203;DHT22;38173;52.850;6.970;2023-06-14T02:51:56;14.00;99.90
52203;DHT22;38173;52.850;6.970;2023-06-14T02:54:22;14.10;99.90
52203;DHT22;38173;52.850;6.970;2023-06-14T02:56:48;14.00;99.90
52203;DHT22;38173;52.850;6.970;2023-06-14T02:59:14;14.00;99.90
52203;DHT22;38173;52.850;6.970;2023-06-14T03:01:40;14.00;99.90
52203;DHT22;38173;52.850;6.970;2023-06-14T03:04:08;14.00;99.90
52203;DHT22;38173;52.850;6.970;2023-06-14T03:06:34;14.00;99.90
52203;DHT22;38173;52.850;6.970;2023-06-14T03:09:03;14.00;99.90
52203;DHT22;38173;52.850;6.970;2023-06-14T03:11:35;14.00;99.90
52203;DHT22;38173;52.850;6.970;2023-06-14T03:14:01;14.00;99.90
52203;DHT22;38173;52.850;6.970;2023-06-14T03:16:30;13.90;99.90
52203;DHT22;38173;52.850;6.970;2023-06-14T03:18:57;13.90;99.90
52203;DHT22;38173;52.850;6.970;2023-06-14T03:21:22;13.90;99.90
52203;DHT22;38173;52.850;6.970;2023-06-14T03:23:48;13.90;99.90
52203;DHT22;38173;52.850;6.970;2023-06-14T03:26:16;13.90;99.90
52203;DHT22;38173;52.850;6.970;2023-06-14T03:28:48;13.90;99.90
52203;DHT22;38173;52.850;6.970;2023-06-14T03:31:15;13.90;99.90
52203;DHT22;38173;52.850;6.970;2023-06-14T03:33:41;13.90;99.90
52203;DHT22;38173;52.850;6.970;2023-06-14T03:36:08;13.80;99.90
52203;DHT22;38173;52.850;6.970;2023-06-14T03:38:34;13.90;99.90
52203;DHT22;38173;52.850;6.970;2023-06-14T03:41:06;13.80;99.90
52203;DHT22;38173;52.850;6.970;2023-06-14T03:43:32;13.80;99.90
52203;DHT22;38173;52.850;6.970;2023-06-14T03:45:59;13.80;99.90
52203;DHT22;38173;52.850;6.970;2023-06-14T03:48:25;13.90;99.90
52203;DHT22;38173;52.850;6.970;2023-06-14T03:50:51;13.80;99.90
52203;DHT22;38173;52.850;6.970;2023-06-14T03:53:18;13.80;99.90
52203;DHT22;38173;52.850;6.970;2023-06-14T03:55:47;13.90;99.90
52203;DHT22;38173;52.850;6.970;2023-06-14T03:58:15;13.90;99.90
52203;DHT22;38173;52.850;6.970;2023-06-14T04:00:41;13.90;99.90
52203;DHT22;38173;52.850;6.970;2023-06-14T04:03:07;13.90;99.90
52203;DHT22;38173;52.850;6.970;2023-06-14T04:05:34;13.90;99.90
52203;DHT22;38173;52.850;6.970;2023-06-14T04:08:09;13.90;99.90
52203;DHT22;38173;52.850;6.970;2023-06-14T04:10:36;13.90;99.90
52203;DHT22;38173;52.850;6.970;2023-06-14T04:13:02;14.00;99.90
52203;DHT22;38173;52.850;6.970;2023-06-14T04:15:28;14.00;99.90
52203;DHT22;38173;52.850;6.970;2023-06-14T04:17:54;14.00;99.90
52203;DHT22;38173;52.850;6.970;2023-06-14T04:20:24;14.10;99.90
52203;DHT22;38173;52.850;6.970;2023-06-14T04:22:51;14.10;99.90
52203;DHT22;38173;52.850;6.970;2023-06-14T04:25:18;14.10;99.90
52203;DHT22;38173;52.850;6.970;2023-06-14T04:27:46;14.20;99.90
52203;DHT22;38173;52.850;6.970;2023-06-14T04:30:14;14.20;99.90
52203;DHT22;38173;52.850;6.970;2023-06-14T04:32:40;14.20;99.90
52203;DHT22;38173;52.850;6.970;2023-06-14T04:35:09;14.20;99.90
52203;DHT22;38173;52.850;6.970;2023-06-14T04:37:36;14.30;99.90
52203;DHT22;38173;52.850;6.970;2023-06-14T04:40:07;14.30;99.90
52203;DHT22;38173;52.850;6.970;2023-06-14T04:42:33;14.40;99.90
52203;DHT22;38173;52.850;6.970;2023-06-14T04:45:02;14.40;99.90
52203;DHT22;38173;52.850;6.970;2023-06-14T04:47:28;14.40;99.90
52203;DHT22;38173;52.850;6.970;2023-06-14T04:49:56;14.50;99.90
52203;DHT22;38173;52.850;6.970;2023-06-14T04:52:23;14.60;99.90
52203;DHT22;38173;52.850;6.970;2023-06-14T04:54:52;14.60;99.90
52203;DHT22;38173;52.850;6.970;2023-06-14T04:57:22;14.80;99.90
52203;DHT22;38173;52.850;6.970;2023-06-14T04:59:48;14.90;99.90
52203;DHT22;38173;52.850;6.970;2023-06-14T05:02:21;15.00;99.90
52203;DHT22;38173;52.850;6.970;2023-06-14T05:04:56;15.10;99.90
52203;DHT22;38173;52.850;6.970;2023-06-14T05:07:22;15.20;99.90
52203;DHT22;38173;52.850;6.970;2023-06-14T05:09:49;15.30;99.90
52203;DHT22;38173;52.850;6.970;2023-06-14T05:12:18;15.30;99.90
52203;DHT22;38173;52.850;6.970;2023-06-14T05:14:45;15.40;99.90
52203;DHT22;38173;52.850;6.970;2023-06-14T05:17:11;15.60;99.90
52203;DHT22;38173;52.850;6.970;2023-06-14T05:19:37;15.60;99.90
52203;DHT22;38173;52.850;6.970;2023-06-14T05:22:04;15.70;99.90
52203;DHT22;38173;52.850;6.970;2023-06-14T05:24:30;15.80;99.90
52203;DHT22;38173;52.850;6.970;2023-06-14T05:26:57;15.90;99.90
52203;DHT22;38173;52.850;6.970;2023-06-14T05:29:24;16.00;99.90
52203;DHT22;38173;52.850;6.970;2023-06-14T05:31:50;16.20;99.90
52203;DHT22;38173;52.850;6.970;2023-06-14T05:34:16;16.30;99.90
52203;DHT22;38173;52.850;6.970;2023-06-14T05:36:42;16.40;99.90
52203;DHT22;38173;52.850;6.970;2023-06-14T05:39:08;16.50;99.90
52203;DHT22;38173;52.850;6.970;2023-06-14T05:41:35;16.60;99.90
52203;DHT22;38173;52.850;6.970;2023-06-14T05:44:01;16.70;99.90
52203;DHT22;38173;52.850;6.970;2023-06-14T05:46:27;16.90;99.90
52203;DHT22;38173;52.850;6.970;2023-06-14T05:48:55;17.00;99.90
52203;DHT22;38173;52.850;6.970;2023-06-14T05:51:21;17.20;99.90
52203;DHT22;38173;52.850;6.970;2023-06-14T05:53:48;17.30;99.90
52203;DHT22;38173;52.850;6.970;2023-06-14T05:56:15;17.40;99.90
52203;DHT22;38173;52.850;6.970;2023-06-14T05:58:45;17.60;99.90
52203;DHT22;38173;52.850;6.970;2023-06-14T06:01:11;17.70;99.90
52203;DHT22;38173;52.850;6.970;2023-06-14T06:03:41;17.80;99.90
52203;DHT22;38173;52.850;6.970;2023-06-14T06:06:11;17.80;99.10
52203;DHT22;38173;52.850;6.970;2023-06-14T06:08:37;18.00;99.90
52203;DHT22;38173;52.850;6.970;2023-06-14T06:11:03;18.10;99.20
52203;DHT22;38173;52.850;6.970;2023-06-14T06:13:30;18.20;98.40
52203;DHT22;38173;52.850;6.970;2023-06-14T06:15:56;18.30;97.10
52203;DHT22;38173;52.850;6.970;2023-06-14T06:18:22;18.40;98.90
52203;DHT22;38173;52.850;6.970;2023-06-14T06:20:51;18.60;98.40
52203;DHT22;38173;52.850;6.970;2023-06-14T06:23:17;18.60;96.00
52203;DHT22;38173;52.850;6.970;2023-06-14T06:25:43;18.70;94.70
52203;DHT22;38173;52.850;6.970;2023-06-14T06:28:08;18.80;95.20
52203;DHT22;38173;52.850;6.970;2023-06-14T06:30:35;18.80;94.70
52203;DHT22;38173;52.850;6.970;2023-06-14T06:33:02;18.90;94.30
52203;DHT22;38173;52.850;6.970;2023-06-14T06:35:31;19.00;93.40
52203;DHT22;38173;52.850;6.970;2023-06-14T06:37:59;19.00;95.50
52203;DHT22;38173;52.850;6.970;2023-06-14T06:40:28;19.20;94.30
52203;DHT22;38173;52.850;6.970;2023-06-14T06:42:55;19.30;92.50
52203;DHT22;38173;52.850;6.970;2023-06-14T06:45:24;19.40;92.20
52203;DHT22;38173;52.850;6.970;2023-06-14T06:47:50;19.40;92.30
52203;DHT22;38173;52.850;6.970;2023-06-14T06:50:17;19.50;91.40
52203;DHT22;38173;52.850;6.970;2023-06-14T06:52:45;19.60;92.70
52203;DHT22;38173;52.850;6.970;2023-06-14T06:55:12;19.70;92.10
52203;DHT22;38173;52.850;6.970;2023-06-14T06:57:41;19.90;91.00
52203;DHT22;38173;52.850;6.970;2023-06-14T07:00:08;19.90;89.50
52203;DHT22;38173;52.850;6.970;2023-06-14T07:02:35;20.00;90.20
52203;DHT22;38173;52.850;6.970;2023-06-14T07:05:02;20.00;87.80
52203;DHT22;38173;52.850;6.970;2023-06-14T07:07:28;20.10;88.70
52203;DHT22;38173;52.850;6.970;2023-06-14T07:10:03;20.20;88.60
52203;DHT22;38173;52.850;6.970;2023-06-14T07:12:31;20.30;87.30
52203;DHT22;38173;52.850;6.970;2023-06-14T07:15:02;20.40;88.20
52203;DHT22;38173;52.850;6.970;2023-06-14T07:17:27;20.50;87.50
52203;DHT22;38173;52.850;6.970;2023-06-14T07:19:53;20.60;87.20
52203;DHT22;38173;52.850;6.970;2023-06-14T07:22:19;20.70;84.80
52203;DHT22;38173;52.850;6.970;2023-06-14T07:24:46;20.70;80.90
52203;DHT22;38173;52.850;6.970;2023-06-14T07:27:12;20.90;81.20
52203;DHT22;38173;52.850;6.970;2023-06-14T07:29:39;20.90;78.60
52203;DHT22;38173;52.850;6.970;2023-06-14T07:32:10;21.10;79.90
52203;DHT22;38173;52.850;6.970;2023-06-14T07:34:36;21.20;77.80
52203;DHT22;38173;52.850;6.970;2023-06-14T07:37:02;21.30;79.00
52203;DHT22;38173;52.850;6.970;2023-06-14T07:39:28;21.40;76.90
52203;DHT22;38173;52.850;6.970;2023-06-14T07:41:57;21.50;76.00
52203;DHT22;38173;52.850;6.970;2023-06-14T07:44:22;21.50;75.30
52203;DHT22;38173;52.850;6.970;2023-06-14T07:46:48;21.60;75.40
52203;DHT22;38173;52.850;6.970;2023-06-14T07:49:17;21.60;74.60
52203;DHT22;38173;52.850;6.970;2023-06-14T07:51:43;21.70;73.50
52203;DHT22;38173;52.850;6.970;2023-06-14T07:54:10;21.80;72.70
52203;DHT22;38173;52.850;6.970;2023-06-14T07:56:36;21.90;72.50
52203;DHT22;38173;52.850;6.970;2023-06-14T07:59:02;21.90;71.50
52203;DHT22;38173;52.850;6.970;2023-06-14T08:01:28;22.00;72.20
52203;DHT22;38173;52.850;6.970;2023-06-14T08:03:54;22.10;70.40
52203;DHT22;38173;52.850;6.970;2023-06-14T08:06:20;22.20;70.80
52203;DHT22;38173;52.850;6.970;2023-06-14T08:08:45;22.30;68.60
52203;DHT22;38173;52.850;6.970;2023-06-14T08:11:11;22.40;68.70
52203;DHT22;38173;52.850;6.970;2023-06-14T08:13:40;22.50;68.40
52203;DHT22;38173;52.850;6.970;2023-06-14T08:16:05;22.50;67.80
52203;DHT22;38173;52.850;6.970;2023-06-14T08:18:37;22.60;67.40
52203;DHT22;38173;52.850;6.970;2023-06-14T08:21:10;22.70;66.00
52203;DHT22;38173;52.850;6.970;2023-06-14T08:23:35;22.70;66.00
52203;DHT22;38173;52.850;6.970;2023-06-14T08:26:01;22.90;68.00
52203;DHT22;38173;52.850;6.970;2023-06-14T08:28:29;22.90;66.80
52203;DHT22;38173;52.850;6.970;2023-06-14T08:30:55;22.90;67.10
52203;DHT22;38173;52.850;6.970;2023-06-14T08:33:21;22.90;66.80
52203;DHT22;38173;52.850;6.970;2023-06-14T08:35:59;23.10;66.30
52203;DHT22;38173;52.850;6.970;2023-06-14T08:38:25;23.10;64.00
52203;DHT22;38173;52.850;6.970;2023-06-14T08:40:53;23.10;64.90
52203;DHT22;38173;52.850;6.970;2023-06-14T08:43:22;23.10;63.90
52203;DHT22;38173;52.850;6.970;2023-06-14T08:45:50;23.20;64.70
52203;DHT22;38173;52.850;6.970;2023-06-14T08:48:19;23.10;63.70
52203;DHT22;38173;52.850;6.970;2023-06-14T08:50:48;23.20;64.40
52203;DHT22;38173;52.850;6.970;2023-06-14T08:53:14;23.20;63.60
52203;DHT22;38173;52.850;6.970;2023-06-14T08:55:46;23.20;62.40
52203;DHT22;38173;52.850;6.970;2023-06-14T08:58:17;23.20;62.30
52203;DHT22;38173;52.850;6.970;2023-06-14T09:00:43;23.40;63.40
52203;DHT22;38173;52.850;6.970;2023-06-14T09:03:10;23.60;63.40
52203;DHT22;38173;52.850;6.970;2023-06-14T09:05:38;23.70;61.70
52203;DHT22;38173;52.850;6.970;2023-06-14T09:08:04;23.70;61.80
52203;DHT22;38173;52.850;6.970;2023-06-14T09:10:36;23.70;60.00
52203;DHT22;38173;52.850;6.970;2023-06-14T09:13:03;23.70;59.40
52203;DHT22;38173;52.850;6.970;2023-06-14T09:15:34;23.70;59.00
52203;DHT22;38173;52.850;6.970;2023-06-14T09:18:03;23.70;58.80
52203;DHT22;38173;52.850;6.970;2023-06-14T09:20:31;23.80;61.90
52203;DHT22;38173;52.850;6.970;2023-06-14T09:23:00;24.00;61.70
52203;DHT22;38173;52.850;6.970;2023-06-14T09:25:26;24.10;61.30
52203;DHT22;38173;52.850;6.970;2023-06-14T09:27:55;24.20;59.20
52203;DHT22;38173;52.850;6.970;2023-06-14T09:30:22;24.30;59.80
52203;DHT22;38173;52.850;6.970;2023-06-14T09:32:48;24.30;58.40
52203;DHT22;38173;52.850;6.970;2023-06-14T09:35:17;24.40;58.90
52203;DHT22;38173;52.850;6.970;2023-06-14T09:37:44;24.30;57.90
52203;DHT22;38173;52.850;6.970;2023-06-14T09:40:10;24.30;57.90
52203;DHT22;38173;52.850;6.970;2023-06-14T09:42:37;24.20;55.80
52203;DHT22;38173;52.850;6.970;2023-06-14T09:45:06;24.30;57.60
52203;DHT22;38173;52.850;6.970;2023-06-14T09:47:32;24.40;57.30
52203;DHT22;38173;52.850;6.970;2023-06-14T09:50:00;24.60;57.80
52203;DHT22;38173;52.850;6.970;2023-06-14T09:52:30;24.80;57.60
52203;DHT22;38173;52.850;6.970;2023-06-14T09:54:59;24.80;56.50
52203;DHT22;38173;52.850;6.970;2023-06-14T09:57:26;24.80;57.00
52203;DHT22;38173;52.850;6.970;2023-06-14T10:00:00;24.70;56.20
52203;DHT22;38173;52.850;6.970;2023-06-14T10:02:39;24.70;56.40
52203;DHT22;38173;52.850;6.970;2023-06-14T10:05:20;24.80;57.00
52203;DHT22;38173;52.850;6.970;2023-06-14T10:08:09;24.80;56.70
52203;DHT22;38173;52.850;6.970;2023-06-14T10:10:39;24.90;54.70
52203;DHT22;38173;52.850;6.970;2023-06-14T10:13:06;25.10;55.70
52203;DHT22;38173;52.850;6.970;2023-06-14T10:18:24;25.10;54.90
52203;DHT22;38173;52.850;6.970;2023-06-14T10:23:52;25.10;54.20
52203;DHT22;38173;52.850;6.970;2023-06-14T10:26:23;25.20;54.20
52203;DHT22;38173;52.850;6.970;2023-06-14T10:29:01;25.40;54.20
52203;DHT22;38173;52.850;6.970;2023-06-14T10:31:46;25.50;54.30
52203;DHT22;38173;52.850;6.970;2023-06-14T10:34:22;25.70;54.70
52203;DHT22;38173;52.850;6.970;2023-06-14T10:39:31;25.90;53.30
52203;DHT22;38173;52.850;6.970;2023-06-14T10:41:58;26.10;54.50
52203;DHT22;38173;52.850;6.970;2023-06-14T10:47:00;26.60;53.40
52203;DHT22;38173;52.850;6.970;2023-06-14T10:49:41;26.80;51.00
52203;DHT22;38173;52.850;6.970;2023-06-14T10:53:00;27.00;50.00
52203;DHT22;38173;52.850;6.970;2023-06-14T10:55:15;27.10;51.50
52203;DHT22;38173;52.850;6.970;2023-06-14T10:57:52;27.10;49.30
52203;DHT22;38173;52.850;6.970;2023-06-14T11:00:26;27.00;50.10
52203;DHT22;38173;52.850;6.970;2023-06-14T11:05:51;27.00;51.80
52203;DHT22;38173;52.850;6.970;2023-06-14T11:08:30;26.90;52.60
52203;DHT22;38173;52.850;6.970;2023-06-14T11:11:08;26.90;50.80
52203;DHT22;38173;52.850;6.970;2023-06-14T11:13:38;27.00;49.50
52203;DHT22;38173;52.850;6.970;2023-06-14T11:16:28;27.10;51.50
52203;DHT22;38173;52.850;6.970;2023-06-14T11:18:55;27.30;50.50
52203;DHT22;38173;52.850;6.970;2023-06-14T11:21:24;27.20;50.90
52203;DHT22;38173;52.850;6.970;2023-06-14T11:24:00;27.10;52.30
52203;DHT22;38173;52.850;6.970;2023-06-14T11:26:32;27.10;51.90
52203;DHT22;38173;52.850;6.970;2023-06-14T11:29:00;27.20;50.80
52203;DHT22;38173;52.850;6.970;2023-06-14T11:31:27;27.30;51.20
52203;DHT22;38173;52.850;6.970;2023-06-14T11:33:56;27.20;50.80
52203;DHT22;38173;52.850;6.970;2023-06-14T11:36:27;27.00;49.10
52203;DHT22;38173;52.850;6.970;2023-06-14T11:39:02;26.70;50.20
52203;DHT22;38173;52.850;6.970;2023-06-14T11:41:45;26.50;50.80
52203;DHT22;38173;52.850;6.970;2023-06-14T11:44:14;26.50;50.70
52203;DHT22;38173;52.850;6.970;2023-06-14T11:46:40;26.70;51.90
52203;DHT22;38173;52.850;6.970;2023-06-14T11:49:12;26.70;50.60
52203;DHT22;38173;52.850;6.970;2023-06-14T11:51:39;26.80;52.40
52203;DHT22;38173;52.850;6.970;2023-06-14T11:54:17;26.80;52.30
52203;DHT22;38173;52.850;6.970;2023-06-14T11:56:43;26.80;52.40
52203;DHT22;38173;52.850;6.970;2023-06-14T11:59:09;26.80;50.50
52203;DHT22;38173;52.850;6.970;2023-06-14T12:01:38;26.80;49.30
52203;DHT22;38173;52.850;6.970;2023-06-14T12:04:07;26.80;50.80
52203;DHT22;38173;52.850;6.970;2023-06-14T12:06:38;27.00;51.90
52203;DHT22;38173;52.850;6.970;2023-06-14T12:09:11;27.20;52.00
52203;DHT22;38173;52.850;6.970;2023-06-14T12:11:43;27.30;51.40
52203;DHT22;38173;52.850;6.970;2023-06-14T12:14:19;27.20;50.10
52203;DHT22;38173;52.850;6.970;2023-06-14T12:16:51;27.30;49.90
52203;DHT22;38173;52.850;6.970;2023-06-14T12:19:26;27.40;51.60
52203;DHT22;38173;52.850;6.970;2023-06-14T12:21:53;27.40;50.90
52203;DHT22;38173;52.850;6.970;2023-06-14T12:24:19;27.50;50.70
52203;DHT22;38173;52.850;6.970;2023-06-14T12:26:45;27.30;50.80
52203;DHT22;38173;52.850;6.970;2023-06-14T12:29:13;27.40;52.00
52203;DHT22;38173;52.850;6.970;2023-06-14T12:31:41;27.40;50.40
52203;DHT22;38173;52.850;6.970;2023-06-14T12:34:07;27.50;50.10
52203;DHT22;38173;52.850;6.970;2023-06-14T12:36:34;27.60;49.60
52203;DHT22;38173;52.850;6.970;2023-06-14T12:39:09;27.80;51.10
52203;DHT22;38173;52.850;6.970;2023-06-14T12:41:35;27.70;50.70
52203;DHT22;38173;52.850;6.970;2023-06-14T12:44:09;27.70;50.50
52203;DHT22;38173;52.850;6.970;2023-06-14T12:46:47;27.70;50.50
52203;DHT22;38173;52.850;6.970;2023-06-14T12:49:13;27.70;49.70
52203;DHT22;38173;52.850;6.970;2023-06-14T12:51:40;27.80;49.30
52203;DHT22;38173;52.850;6.970;2023-06-14T12:54:14;27.90;50.90
52203;DHT22;38173;52.850;6.970;2023-06-14T12:56:40;28.10;49.30
52203;DHT22;38173;52.850;6.970;2023-06-14T12:59:10;28.30;49.30
52203;DHT22;38173;52.850;6.970;2023-06-14T13:01:41;28.60;50.40
52203;DHT22;38173;52.850;6.970;2023-06-14T13:04:11;28.60;50.50
52203;DHT22;38173;52.850;6.970;2023-06-14T13:06:37;28.60;49.60
52203;DHT22;38173;52.850;6.970;2023-06-14T13:09:04;28.70;50.40
52203;DHT22;38173;52.850;6.970;2023-06-14T13:11:31;28.70;48.40
52203;DHT22;38173;52.850;6.970;2023-06-14T13:13:57;28.80;48.80
52203;DHT22;38173;52.850;6.970;2023-06-14T13:16:23;28.90;48.60
52203;DHT22;38173;52.850;6.970;2023-06-14T13:18:53;29.00;49.30
52203;DHT22;38173;52.850;6.970;2023-06-14T13:21:19;29.10;50.10
52203;DHT22;38173;52.850;6.970;2023-06-14T13:23:51;29.40;49.60
52203;DHT22;38173;52.850;6.970;2023-06-14T13:26:26;29.70;49.70
52203;DHT22;38173;52.850;6.970;2023-06-14T13:28:52;29.90;49.10
52203;DHT22;38173;52.850;6.970;2023-06-14T13:31:18;30.00;48.60
52203;DHT22;38173;52.850;6.970;2023-06-14T13:33:47;29.70;49.30
52203;DHT22;38173;52.850;6.970;2023-06-14T13:36:17;29.50;49.50
52203;DHT22;38173;52.850;6.970;2023-06-14T13:38:49;29.20;48.40
52203;DHT22;38173;52.850;6.970;2023-06-14T13:41:20;29.20;49.50
52203;DHT22;38173;52.850;6.970;2023-06-14T13:44:00;29.60;48.80
52203;DHT22;38173;52.850;6.970;2023-06-14T13:46:30;29.70;48.90
52203;DHT22;38173;52.850;6.970;2023-06-14T13:48:57;29.40;48.60
52203;DHT22;38173;52.850;6.970;2023-06-14T13:51:29;28.80;48.20
52203;DHT22;38173;52.850;6.970;2023-06-14T13:53:56;28.60;48.30
52203;DHT22;38173;52.850;6.970;2023-06-14T13:56:24;28.50;49.10
52203;DHT22;38173;52.850;6.970;2023-06-14T13:58:53;28.60;49.10
52203;DHT22;38173;52.850;6.970;2023-06-14T14:01:26;28.90;48.20
52203;DHT22;38173;52.850;6.970;2023-06-14T14:04:01;29.50;48.30
52203;DHT22;38173;52.850;6.970;2023-06-14T14:06:37;29.90;46.90
52203;DHT22;38173;52.850;6.970;2023-06-14T14:09:07;29.90;46.80
52203;DHT22;38173;52.850;6.970;2023-06-14T14:11:38;29.90;45.90
52203;DHT22;38173;52.850;6.970;2023-06-14T14:14:14;30.20;48.20
52203;DHT22;38173;52.850;6.970;2023-06-14T14:16:40;30.90;46.60
52203;DHT22;38173;52.850;6.970;2023-06-14T14:19:12;31.20;46.00
52203;DHT22;38173;52.850;6.970;2023-06-14T14:21:38;31.30;46.80
52203;DHT22;38173;52.850;6.970;2023-06-14T14:24:07;31.50;46.10
52203;DHT22;38173;52.850;6.970;2023-06-14T14:26:33;31.30;44.00
52203;DHT22;38173;52.850;6.970;2023-06-14T14:29:05;31.50;46.10
52203;DHT22;38173;52.850;6.970;2023-06-14T14:31:50;31.70;46.70
52203;DHT22;38173;52.850;6.970;2023-06-14T14:34:16;31.70;47.30
52203;DHT22;38173;52.850;6.970;2023-06-14T14:36:51;31.60;46.50
52203;DHT22;38173;52.850;6.970;2023-06-14T14:39:22;31.50;46.70
52203;DHT22;38173;52.850;6.970;2023-06-14T14:41:57;31.70;45.60
52203;DHT22;38173;52.850;6.970;2023-06-14T14:44:25;31.80;45.30
52203;DHT22;38173;52.850;6.970;2023-06-14T14:47:02;31.70;46.00
52203;DHT22;38173;52.850;6.970;2023-06-14T14:49:28;31.80;45.30
52203;DHT22;38173;52.850;6.970;2023-06-14T14:51:55;32.10;45.60
52203;DHT22;38173;52.850;6.970;2023-06-14T14:54:22;32.40;43.50
52203;DHT22;38173;52.850;6.970;2023-06-14T14:56:54;32.90;42.80
52203;DHT22;38173;52.850;6.970;2023-06-14T14:59:20;33.30;43.90
52203;DHT22;38173;52.850;6.970;2023-06-14T15:01:48;33.30;44.40
52203;DHT22;38173;52.850;6.970;2023-06-14T15:04:13;33.40;45.00
52203;DHT22;38173;52.850;6.970;2023-06-14T15:06:39;33.40;44.00
52203;DHT22;38173;52.850;6.970;2023-06-14T15:09:08;32.80;45.10
52203;DHT22;38173;52.850;6.970;2023-06-14T15:11:40;32.20;45.40
52203;DHT22;38173;52.850;6.970;2023-06-14T15:14:10;31.50;43.40
52203;DHT22;38173;52.850;6.970;2023-06-14T15:16:40;31.50;45.30
52203;DHT22;38173;52.850;6.970;2023-06-14T15:19:06;31.90;43.80
52203;DHT22;38173;52.850;6.970;2023-06-14T15:21:35;32.30;43.30
52203;DHT22;38173;52.850;6.970;2023-06-14T15:24:04;32.80;43.40
52203;DHT22;38173;52.850;6.970;2023-06-14T15:26:30;33.60;44.00
52203;DHT22;38173;52.850;6.970;2023-06-14T15:28:56;33.50;42.40
52203;DHT22;38173;52.850;6.970;2023-06-14T15:31:22;33.30;42.30
52203;DHT22;38173;52.850;6.970;2023-06-14T15:33:52;32.60;43.50
52203;DHT22;38173;52.850;6.970;2023-06-14T15:36:24;32.00;44.00
52203;DHT22;38173;52.850;6.970;2023-06-14T15:38:50;32.10;44.10
52203;DHT22;38173;52.850;6.970;2023-06-14T15:41:16;32.50;43.80
52203;DHT22;38173;52.850;6.970;2023-06-14T15:43:48;33.20;44.30
52203;DHT22;38173;52.850;6.970;2023-06-14T15:46:16;33.50;43.10
52203;DHT22;38173;52.850;6.970;2023-06-14T15:48:52;33.40;43.10
52203;DHT22;38173;52.850;6.970;2023-06-14T15:51:18;33.10;44.00
52203;DHT22;38173;52.850;6.970;2023-06-14T15:53:44;33.20;42.40
52203;DHT22;38173;52.850;6.970;2023-06-14T15:56:10;33.60;43.30